createdAt,value
2019-01-04T00:00:47.372Z,92.91
2019-01-04T00:01:47.384Z,92.60
2019-01-04T00:02:47.349Z,92.60
2019-01-04T00:03:47.339Z,92.29
2019-01-04T00:04:47.329Z,92.29
2019-01-04T00:05:47.330Z,92.60
2019-01-04T00:06:47.304Z,92.81
2019-01-04T00:07:47.314Z,92.50
2019-01-04T00:08:47.285Z,92.44
2019-01-04T00:09:47.276Z,92.44
2019-01-04T00:10:47.278Z,92.33
2019-01-04T00:11:47.252Z,92.54
2019-01-04T00:12:47.239Z,92.96
2019-01-04T00:13:47.244Z,92.65
2019-01-04T00:14:47.213Z,93.06
2019-01-04T00:15:47.208Z,93.44
2019-01-04T00:16:47.212Z,93.75
2019-01-04T00:17:47.183Z,93.54
2019-01-04T00:18:48.142Z,93.48
2019-01-04T00:19:47.178Z,93.16
2019-01-04T00:20:47.152Z,92.71
2019-01-04T00:21:47.155Z,93.06
2019-01-04T00:22:47.127Z,92.85
2019-01-04T00:23:47.113Z,92.75
2019-01-04T00:24:47.104Z,92.54
2019-01-04T00:25:47.137Z,93.59
2019-01-04T00:26:47.084Z,94.31
2019-01-04T00:27:47.092Z,94.63
2019-01-04T00:28:47.059Z,95.36
2019-01-04T00:29:47.051Z,95.46
2019-01-04T00:30:47.041Z,95.56
2019-01-04T00:31:47.049Z,95.31
2019-01-04T00:32:47.016Z,95.78
2019-01-04T00:33:47.018Z,95.83
2019-01-04T00:34:46.999Z,95.94
2019-01-04T00:35:46.982Z,96.15
2019-01-04T00:36:46.991Z,95.62
2019-01-04T00:37:46.982Z,95.98
2019-01-04T00:38:46.952Z,96.30
2019-01-04T00:39:46.937Z,96.04
2019-01-04T00:40:46.931Z,95.56
2019-01-04T00:41:46.916Z,95.46
2019-01-04T00:42:46.929Z,95.62
2019-01-04T00:43:46.932Z,95.94
2019-01-04T00:44:46.887Z,96.15
2019-01-04T00:45:46.872Z,96.04
2019-01-04T00:46:46.860Z,96.40
2019-01-04T00:47:46.851Z,96.04
2019-01-04T00:48:46.855Z,96.19
2019-01-04T00:49:46.851Z,96.19
2019-01-04T00:50:46.815Z,96.09
2019-01-04T00:51:46.814Z,96.19
2019-01-04T00:52:46.796Z,96.30
2019-01-04T00:53:46.781Z,96.19
2019-01-04T00:54:46.787Z,96.61
2019-01-04T00:55:46.790Z,96.82
2019-01-04T00:56:46.764Z,96.92
2019-01-04T00:57:46.751Z,96.92
2019-01-04T00:58:46.726Z,96.82
2019-01-04T00:59:46.718Z,96.82
2019-01-04T01:00:46.705Z,96.40
2019-01-04T01:01:46.751Z,96.61
2019-01-04T01:02:46.686Z,96.19
2019-01-04T01:03:46.674Z,96.50
2019-01-04T01:04:46.664Z,96.30
2019-01-04T01:05:46.676Z,95.78
2019-01-04T01:06:46.641Z,95.67
2019-01-04T01:07:46.659Z,95.78
2019-01-04T01:08:46.616Z,96.19
2019-01-04T01:09:46.605Z,95.56
2019-01-04T01:10:46.594Z,95.56
2019-01-04T01:11:46.595Z,95.46
2019-01-04T01:12:46.598Z,95.56
2019-01-04T01:13:46.585Z,95.15
2019-01-04T01:14:46.553Z,95.61
2019-01-04T01:15:46.540Z,95.46
2019-01-04T01:16:46.554Z,96.30
2019-01-04T01:17:46.523Z,96.30
2019-01-04T01:18:46.504Z,96.40
2019-01-04T01:19:46.518Z,96.30
2019-01-04T01:20:46.485Z,96.30
2019-01-04T01:21:46.474Z,96.55
2019-01-04T01:22:46.473Z,97.13
2019-01-04T01:23:46.469Z,97.03
2019-01-04T01:24:46.438Z,97.03
2019-01-04T01:25:46.446Z,97.44
2019-01-04T01:26:46.416Z,96.19
2019-01-04T01:27:46.407Z,96.61
2019-01-04T01:28:46.411Z,97.03
2019-01-04T01:29:46.387Z,96.71
2019-01-04T01:30:46.376Z,97.03
2019-01-04T01:31:46.386Z,97.24
2019-01-04T01:32:46.349Z,97.13
2019-01-04T01:33:46.340Z,97.13
2019-01-04T01:34:46.347Z,96.92
2019-01-04T01:35:46.314Z,97.44
2019-01-04T01:36:46.307Z,97.24
2019-01-04T01:37:46.338Z,96.67
2019-01-04T01:38:46.284Z,96.50
2019-01-04T01:39:46.269Z,96.98
2019-01-04T01:40:46.278Z,96.92
2019-01-04T01:41:46.249Z,96.88
2019-01-04T01:42:46.240Z,96.71
2019-01-04T01:43:46.271Z,96.82
2019-01-04T01:44:46.215Z,97.34
2019-01-04T01:45:46.204Z,97.24
2019-01-04T01:46:46.207Z,97.03
2019-01-04T01:47:46.187Z,96.82
2019-01-04T01:48:46.177Z,97.24
2019-01-04T01:49:46.178Z,97.34
2019-01-04T01:50:46.155Z,97.55
2019-01-04T01:51:46.159Z,97.55
2019-01-04T01:52:46.128Z,97.65
2019-01-04T01:53:46.119Z,97.59
2019-01-04T01:54:46.106Z,98.07
2019-01-04T01:55:46.110Z,97.86
2019-01-04T01:56:46.125Z,97.86
2019-01-04T01:57:46.089Z,97.80
2019-01-04T01:58:46.065Z,97.97
2019-01-04T01:59:46.050Z,98.01
2019-01-04T02:00:46.039Z,98.32
2019-01-04T02:01:46.040Z,98.28
2019-01-04T02:02:46.017Z,98.53
2019-01-04T02:03:46.042Z,98.74
2019-01-04T02:04:45.993Z,99.16
2019-01-04T02:05:45.983Z,99.11
2019-01-04T02:06:45.972Z,99.11
2019-01-04T02:07:45.978Z,99.05
2019-01-04T02:08:45.950Z,99.05
2019-01-04T02:09:45.957Z,98.95
2019-01-04T02:10:45.927Z,99.01
2019-01-04T02:11:45.927Z,99.05
2019-01-04T02:12:45.905Z,99.05
2019-01-04T02:13:45.914Z,99.11
2019-01-04T02:14:45.885Z,99.11
2019-01-04T02:15:45.881Z,99.01
2019-01-04T02:16:45.859Z,99.11
2019-01-04T02:17:45.848Z,99.01
2019-01-04T02:18:45.839Z,99.32
2019-01-04T02:19:45.878Z,99.11
2019-01-04T02:20:45.832Z,99.11
2019-01-04T02:21:45.803Z,99.11
2019-01-04T02:22:45.795Z,99.01
2019-01-04T02:23:45.784Z,99.01
2019-01-04T02:24:45.769Z,99.11
2019-01-04T02:25:45.781Z,99.37
2019-01-04T02:26:45.769Z,98.95
2019-01-04T02:27:45.739Z,99.16
2019-01-04T02:28:45.726Z,99.11
2019-01-04T02:29:45.714Z,99.43
2019-01-04T02:30:45.707Z,99.43
2019-01-04T02:31:45.730Z,99.32
2019-01-04T02:32:45.701Z,99.53
2019-01-04T02:33:45.669Z,99.53
2019-01-04T02:34:45.661Z,99.32
2019-01-04T02:35:45.649Z,99.27
2019-01-04T02:36:45.641Z,99.43
2019-01-04T02:37:54.665Z,99.32
2019-01-04T02:38:45.630Z,98.28
2019-01-04T02:39:45.604Z,98.69
2019-01-04T02:40:45.599Z,98.38
2019-01-04T02:41:45.592Z,98.18
2019-01-04T02:42:45.610Z,98.34
2019-01-04T02:43:45.585Z,98.07
2019-01-04T02:44:45.552Z,98.34
2019-01-04T02:45:45.541Z,97.97
2019-01-04T02:46:45.531Z,98.28
2019-01-04T02:47:45.513Z,98.23
2019-01-04T02:48:45.503Z,97.71
2019-01-04T02:49:45.511Z,97.92
2019-01-04T02:50:45.484Z,97.81
2019-01-04T02:51:45.475Z,98.13
2019-01-04T02:52:45.464Z,97.81
2019-01-04T02:53:45.447Z,97.81
2019-01-04T02:54:45.438Z,97.81
2019-01-04T02:55:45.444Z,97.81
2019-01-04T02:56:45.414Z,97.61
2019-01-04T02:57:45.410Z,97.92
2019-01-04T02:58:45.401Z,98.02
2019-01-04T02:59:45.397Z,97.92
2019-01-04T03:00:45.369Z,97.92
2019-01-04T03:01:45.370Z,97.92
2019-01-04T03:02:45.351Z,97.61
2019-01-04T03:03:45.335Z,97.92
2019-01-04T03:04:45.337Z,97.92
2019-01-04T03:05:45.316Z,97.92
2019-01-04T03:06:45.323Z,97.71
2019-01-04T03:07:45.290Z,97.61
2019-01-04T03:08:45.289Z,97.61
2019-01-04T03:09:45.270Z,97.92
2019-01-04T03:10:45.263Z,97.71
2019-01-04T03:11:45.253Z,97.61
2019-01-04T03:12:45.250Z,97.61
2019-01-04T03:13:45.227Z,98.02
2019-01-04T03:14:45.215Z,97.92
2019-01-04T03:15:45.206Z,97.61
2019-01-04T03:16:45.225Z,97.88
2019-01-04T03:17:45.287Z,97.77
2019-01-04T03:18:45.188Z,97.92
2019-01-04T03:19:45.179Z,97.19
2019-01-04T03:20:45.149Z,97.25
2019-01-04T03:21:45.139Z,97.19
2019-01-04T03:22:45.127Z,97.56
2019-01-04T03:23:45.171Z,97.67
2019-01-04T03:24:45.150Z,97.35
2019-01-04T03:25:45.111Z,97.71
2019-01-04T03:26:45.081Z,97.46
2019-01-04T03:27:45.110Z,97.40
2019-01-04T03:28:45.063Z,97.56
2019-01-04T03:29:45.069Z,97.50
2019-01-04T03:30:45.041Z,97.56
2019-01-04T03:31:45.039Z,97.67
2019-01-04T03:32:45.066Z,97.46
2019-01-04T03:33:45.002Z,97.40
2019-01-04T03:34:44.995Z,97.46
2019-01-04T03:35:44.999Z,97.56
2019-01-04T03:36:44.998Z,97.35
2019-01-04T03:37:45.010Z,96.83
2019-01-04T03:38:44.959Z,97.25
2019-01-04T03:39:44.935Z,97.25
2019-01-04T03:40:44.952Z,96.94
2019-01-04T03:41:44.916Z,97.30
2019-01-04T03:42:44.934Z,97.67
2019-01-04T03:43:44.932Z,97.67
2019-01-04T03:44:44.884Z,97.56
2019-01-04T03:45:44.873Z,97.67
2019-01-04T03:46:44.863Z,97.46
2019-01-04T03:47:44.863Z,97.67
2019-01-04T03:48:44.845Z,97.77
2019-01-04T03:49:44.837Z,97.67
2019-01-04T03:50:44.814Z,97.56
2019-01-04T03:51:44.802Z,97.35
2019-01-04T03:52:44.803Z,97.56
2019-01-04T03:53:44.787Z,97.35
2019-01-04T03:54:44.793Z,97.72
2019-01-04T03:55:44.759Z,97.46
2019-01-04T03:56:44.749Z,97.35
2019-01-04T03:57:44.738Z,97.00
2019-01-04T03:58:44.726Z,96.79
2019-01-04T03:59:44.717Z,97.31
2019-01-04T04:00:44.713Z,96.89
2019-01-04T04:01:44.706Z,97.35
2019-01-04T04:02:44.677Z,96.79
2019-01-04T04:03:44.674Z,97.35
2019-01-04T04:04:44.655Z,97.10
2019-01-04T04:05:44.671Z,97.31
2019-01-04T04:06:44.638Z,96.69
2019-01-04T04:07:44.628Z,97.41
2019-01-04T04:08:44.614Z,97.31
2019-01-04T04:09:44.604Z,97.10
2019-01-04T04:10:44.588Z,97.41
2019-01-04T04:11:44.592Z,97.00
2019-01-04T04:12:44.592Z,96.89
2019-01-04T04:13:44.558Z,97.41
2019-01-04T04:14:44.553Z,96.73
2019-01-04T04:15:44.555Z,97.31
2019-01-04T04:16:44.528Z,97.56
2019-01-04T04:17:44.524Z,97.00
2019-01-04T04:18:44.512Z,96.79
2019-01-04T04:19:44.492Z,96.58
2019-01-04T04:20:44.483Z,97.00
2019-01-04T04:21:44.480Z,97.20
2019-01-04T04:22:44.484Z,97.10
2019-01-04T04:23:44.460Z,97.31
2019-01-04T04:24:44.438Z,96.48
2019-01-04T04:25:44.428Z,96.16
2019-01-04T04:26:44.435Z,96.79
2019-01-04T04:27:44.398Z,96.89
2019-01-04T04:28:44.393Z,96.37
2019-01-04T04:29:44.421Z,96.89
2019-01-04T04:30:44.370Z,97.00
2019-01-04T04:31:44.357Z,96.89
2019-01-04T04:32:44.384Z,97.10
2019-01-04T04:33:44.365Z,97.10
2019-01-04T04:34:44.321Z,97.41
2019-01-04T04:35:44.315Z,97.14
2019-01-04T04:36:44.315Z,97.41
2019-01-04T04:37:44.287Z,97.52
2019-01-04T04:38:44.311Z,96.58
2019-01-04T04:39:44.267Z,97.52
2019-01-04T04:40:44.253Z,97.52
2019-01-04T04:41:44.260Z,97.41
2019-01-04T04:42:44.238Z,97.00
2019-01-04T04:43:44.233Z,96.85
2019-01-04T04:44:44.238Z,97.10
2019-01-04T04:45:44.206Z,96.58
2019-01-04T04:46:44.184Z,96.48
2019-01-04T04:47:44.177Z,97.00
2019-01-04T04:48:44.178Z,97.00
2019-01-04T04:49:44.153Z,97.20
2019-01-04T04:50:44.170Z,95.95
2019-01-04T04:51:44.131Z,96.75
2019-01-04T04:52:44.120Z,97.00
2019-01-04T04:53:44.109Z,97.20
2019-01-04T04:54:44.113Z,97.10
2019-01-04T04:55:44.087Z,96.89
2019-01-04T04:56:44.101Z,97.52
2019-01-04T04:57:44.075Z,97.20
2019-01-04T04:58:44.068Z,97.00
2019-01-04T04:59:44.055Z,97.20
2019-01-04T05:00:44.033Z,97.58
2019-01-04T05:01:44.022Z,97.27
2019-01-04T05:02:44.026Z,97.47
2019-01-04T05:03:44.011Z,97.58
2019-01-04T05:04:43.988Z,97.37
2019-01-04T05:05:43.975Z,97.16
2019-01-04T05:06:43.965Z,97.64
2019-01-04T05:07:43.968Z,97.89
2019-01-04T05:08:43.958Z,97.58
2019-01-04T05:09:43.937Z,97.68
2019-01-04T05:10:43.921Z,98.05
2019-01-04T05:11:43.908Z,97.89
2019-01-04T05:12:43.897Z,97.53
2019-01-04T05:13:43.885Z,97.78
2019-01-04T05:14:43.894Z,97.78
2019-01-04T05:15:43.874Z,97.95
2019-01-04T05:16:43.858Z,97.47
2019-01-04T05:17:43.868Z,97.99
2019-01-04T05:18:43.830Z,97.74
2019-01-04T05:19:43.820Z,97.95
2019-01-04T05:20:43.823Z,97.78
2019-01-04T05:21:43.806Z,97.47
2019-01-04T05:22:43.793Z,97.64
2019-01-04T05:23:43.782Z,97.85
2019-01-04T05:24:43.778Z,97.74
2019-01-04T05:25:43.754Z,97.22
2019-01-04T05:26:43.755Z,97.85
2019-01-04T05:27:43.733Z,97.43
2019-01-04T05:28:43.723Z,97.85
2019-01-04T05:29:43.710Z,97.74
2019-01-04T05:30:43.707Z,97.74
2019-01-04T05:31:43.701Z,97.53
2019-01-04T05:32:43.679Z,97.74
2019-01-04T05:33:43.678Z,97.53
2019-01-04T05:34:43.667Z,97.91
2019-01-04T05:35:43.642Z,98.22
2019-01-04T05:36:43.638Z,97.80
2019-01-04T05:37:43.632Z,98.01
2019-01-04T05:38:43.616Z,98.32
2019-01-04T05:39:43.618Z,98.32
2019-01-04T05:40:43.605Z,98.22
2019-01-04T05:41:43.578Z,98.84
2019-01-04T05:42:43.570Z,99.05
2019-01-04T05:43:43.566Z,98.84
2019-01-04T05:44:43.544Z,98.74
2019-01-04T05:45:43.606Z,98.74
2019-01-04T05:46:43.528Z,99.36
2019-01-04T05:47:43.517Z,99.36
2019-01-04T05:48:43.499Z,98.90
2019-01-04T05:49:43.490Z,99.01
2019-01-04T05:50:43.478Z,99.21
2019-01-04T05:51:43.498Z,99.26
2019-01-04T05:52:43.455Z,99.21
2019-01-04T05:53:43.462Z,99.63
2019-01-04T05:54:43.432Z,99.01
2019-01-04T05:55:43.447Z,99.42
2019-01-04T05:56:43.443Z,99.42
2019-01-04T05:57:43.406Z,99.11
2019-01-04T05:58:43.393Z,99.01
2019-01-04T05:59:43.382Z,99.21
2019-01-04T06:00:43.410Z,99.73
2019-01-04T06:01:43.391Z,99.11
2019-01-04T06:02:43.345Z,99.52
2019-01-04T06:03:43.333Z,99.48
2019-01-04T06:04:43.322Z,99.58
2019-01-04T06:05:43.315Z,99.58
2019-01-04T06:06:43.304Z,99.99
2019-01-04T06:07:43.312Z,99.58
2019-01-04T06:08:43.277Z,99.94
2019-01-04T06:09:43.266Z,99.79
2019-01-04T06:10:43.258Z,99.68
2019-01-04T06:11:43.244Z,99.79
2019-01-04T06:12:43.234Z,99.99
2019-01-04T06:13:43.243Z,99.99
2019-01-04T06:14:43.223Z,99.90
2019-01-04T06:15:43.200Z,99.79
2019-01-04T06:16:43.189Z,99.79
2019-01-04T06:17:43.177Z,99.64
2019-01-04T06:18:43.166Z,99.79
2019-01-04T06:19:43.167Z,99.79
2019-01-04T06:20:43.148Z,99.79
2019-01-04T06:21:43.138Z,99.90
2019-01-04T06:22:43.137Z,99.79
2019-01-04T06:23:43.110Z,99.74
2019-01-04T06:24:43.116Z,99.74
2019-01-04T06:25:43.090Z,99.54
2019-01-04T06:26:43.079Z,99.74
2019-01-04T06:27:44.157Z,99.74
2019-01-04T06:28:43.061Z,99.74
2019-01-04T06:29:43.047Z,99.64
2019-01-04T06:30:43.052Z,99.74
2019-01-04T06:31:43.040Z,99.74
2019-01-04T06:32:43.015Z,99.74
2019-01-04T06:33:43.000Z,99.64
2019-01-04T06:34:42.990Z,99.64
2019-01-04T06:35:42.997Z,99.85
2019-01-04T06:36:42.974Z,99.99
2019-01-04T06:37:42.962Z,99.95
2019-01-04T06:38:42.947Z,99.95
2019-01-04T06:39:42.935Z,99.70
2019-01-04T06:40:42.922Z,99.95
2019-01-04T06:41:42.933Z,99.74
2019-01-04T06:42:42.904Z,99.70
2019-01-04T06:43:42.895Z,99.99
2019-01-04T06:44:42.879Z,99.91
2019-01-04T06:45:42.875Z,99.59
2019-01-04T06:46:42.855Z,99.59
2019-01-04T06:47:42.863Z,99.64
2019-01-04T06:48:42.835Z,99.59
2019-01-04T06:49:42.837Z,99.91
2019-01-04T06:50:42.814Z,99.99
2019-01-04T06:51:42.801Z,99.59
2019-01-04T06:52:42.793Z,99.59
2019-01-04T06:53:42.796Z,99.91
2019-01-04T06:54:42.768Z,99.99
2019-01-04T06:55:42.764Z,99.59
2019-01-04T06:56:42.757Z,99.91
2019-01-04T06:57:42.736Z,99.80
2019-01-04T06:58:42.746Z,99.38
2019-01-04T06:59:42.734Z,99.49
2019-01-04T07:00:42.702Z,99.38
2019-01-04T07:01:42.692Z,98.97
2019-01-04T07:02:42.685Z,99.07
2019-01-04T07:03:42.667Z,98.86
2019-01-04T07:04:42.672Z,98.97
2019-01-04T07:05:42.651Z,98.76
2019-01-04T07:06:42.647Z,98.93
2019-01-04T07:07:42.627Z,98.97
2019-01-04T07:08:42.630Z,99.07
2019-01-04T07:09:42.609Z,98.93
2019-01-04T07:10:42.605Z,99.03
2019-01-04T07:11:42.595Z,98.82
2019-01-04T07:12:42.567Z,98.82
2019-01-04T07:13:42.557Z,98.72
2019-01-04T07:14:42.560Z,99.34
2019-01-04T07:15:42.545Z,98.61
2019-01-04T07:16:42.552Z,99.34
2019-01-04T07:17:42.536Z,98.51
2019-01-04T07:18:42.503Z,99.03
2019-01-04T07:19:42.493Z,99.03
2019-01-04T07:20:42.482Z,99.13
2019-01-04T07:21:42.470Z,98.93
2019-01-04T07:22:42.492Z,98.82
2019-01-04T07:23:42.463Z,98.61
2019-01-04T07:24:42.444Z,98.93
2019-01-04T07:25:42.431Z,99.13
2019-01-04T07:26:42.431Z,99.55
2019-01-04T07:27:42.421Z,99.24
2019-01-04T07:28:42.393Z,99.34
2019-01-04T07:29:42.381Z,99.24
2019-01-04T07:30:42.368Z,99.13
2019-01-04T07:31:42.359Z,99.03
2019-01-04T07:32:42.355Z,98.61
2019-01-04T07:33:42.356Z,98.51
2019-01-04T07:34:42.324Z,99.03
2019-01-04T07:35:42.316Z,98.51
2019-01-04T07:36:42.304Z,98.51
2019-01-04T07:37:42.294Z,98.30
2019-01-04T07:38:42.305Z,98.72
2019-01-04T07:39:42.270Z,98.61
2019-01-04T07:40:42.262Z,98.72
2019-01-04T07:41:42.247Z,98.72
2019-01-04T07:42:42.262Z,97.99
2019-01-04T07:43:42.230Z,98.10
2019-01-04T07:44:42.239Z,98.10
2019-01-04T07:45:42.251Z,98.10
2019-01-04T07:46:42.193Z,97.99
2019-01-04T07:47:42.184Z,97.58
2019-01-04T07:48:42.172Z,97.58
2019-01-04T07:49:42.158Z,97.58
2019-01-04T07:50:42.160Z,97.89
2019-01-04T07:51:42.172Z,97.89
2019-01-04T07:52:42.127Z,97.68
2019-01-04T07:53:42.132Z,97.47
2019-01-04T07:54:42.104Z,97.27
2019-01-04T07:55:42.141Z,97.37
2019-01-04T07:56:42.083Z,97.47
2019-01-04T07:57:42.095Z,97.47
2019-01-04T07:58:42.060Z,97.68
2019-01-04T07:59:42.049Z,97.47
2019-01-04T08:00:42.036Z,97.43
2019-01-04T08:01:42.038Z,97.43
2019-01-04T08:02:42.014Z,97.47
2019-01-04T08:03:42.021Z,97.37
2019-01-04T08:04:41.994Z,97.33
2019-01-04T08:05:41.983Z,97.22
2019-01-04T08:06:41.984Z,97.53
2019-01-04T08:07:41.958Z,97.53
2019-01-04T08:08:41.959Z,97.33
2019-01-04T08:09:41.952Z,97.43
2019-01-04T08:10:41.940Z,97.53
2019-01-04T08:11:41.923Z,97.47
2019-01-04T08:12:41.911Z,97.43
2019-01-04T08:13:41.893Z,97.43
2019-01-04T08:14:41.883Z,97.33
2019-01-04T08:15:41.891Z,97.33
2019-01-04T08:16:41.861Z,97.43
2019-01-04T08:17:41.861Z,97.33
2019-01-04T08:18:41.850Z,97.53
2019-01-04T08:19:41.828Z,97.53
2019-01-04T08:20:41.819Z,96.81
2019-01-04T08:21:41.831Z,96.70
2019-01-04T08:22:41.813Z,96.97
2019-01-04T08:23:41.806Z,97.22
2019-01-04T08:24:41.771Z,97.28
2019-01-04T08:25:41.762Z,97.12
2019-01-04T08:26:41.769Z,96.81
2019-01-04T08:27:41.746Z,96.66
2019-01-04T08:28:41.738Z,96.34
2019-01-04T08:29:41.735Z,96.76
2019-01-04T08:30:41.726Z,96.97
2019-01-04T08:31:41.695Z,96.97
2019-01-04T08:32:41.682Z,96.45
2019-01-04T08:33:41.690Z,96.97
2019-01-04T08:34:41.664Z,96.34
2019-01-04T08:35:41.650Z,95.93
2019-01-04T08:36:41.655Z,95.93
2019-01-04T08:37:41.628Z,95.93
2019-01-04T08:38:49.178Z,96.34
2019-01-04T08:39:41.617Z,96.24
2019-01-04T08:40:41.600Z,96.24
2019-01-04T08:41:41.620Z,96.34
2019-01-04T08:42:41.595Z,95.98
2019-01-04T08:43:41.566Z,96.45
2019-01-04T08:44:41.560Z,95.83
2019-01-04T08:45:41.546Z,96.14
2019-01-04T08:46:41.529Z,96.34
2019-01-04T08:47:41.555Z,96.14
2019-01-04T08:48:41.548Z,95.41
2019-01-04T08:49:41.496Z,95.41
2019-01-04T08:50:41.488Z,95.15
2019-01-04T08:51:41.474Z,95.41
2019-01-04T08:52:41.495Z,95.62
2019-01-04T08:53:41.452Z,95.51
2019-01-04T08:54:41.461Z,95.51
2019-01-04T08:55:41.442Z,95.41
2019-01-04T08:56:41.416Z,95.51
2019-01-04T08:57:41.409Z,95.37
2019-01-04T08:58:41.417Z,95.62
2019-01-04T08:59:41.407Z,95.51
2019-01-04T09:00:41.376Z,95.51
2019-01-04T09:01:41.364Z,95.00
2019-01-04T09:02:41.353Z,95.00
2019-01-04T09:03:41.344Z,94.68
2019-01-04T09:04:41.344Z,94.79
2019-01-04T09:05:41.334Z,94.79
2019-01-04T09:06:41.312Z,94.64
2019-01-04T09:07:41.297Z,94.89
2019-01-04T09:08:41.287Z,94.79
2019-01-04T09:09:41.277Z,94.54
2019-01-04T09:10:41.319Z,95.10
2019-01-04T09:11:41.257Z,95.06
2019-01-04T09:12:41.255Z,94.68
2019-01-04T09:13:41.233Z,95.00
2019-01-04T09:14:41.238Z,94.95
2019-01-04T09:15:41.211Z,94.89
2019-01-04T09:16:41.209Z,95.20
2019-01-04T09:17:41.201Z,95.00
2019-01-04T09:18:41.177Z,95.47
2019-01-04T09:19:41.181Z,95.47
2019-01-04T09:20:41.170Z,95.37
2019-01-04T09:21:41.141Z,95.41
2019-01-04T09:22:41.139Z,95.06
2019-01-04T09:23:41.121Z,95.00
2019-01-04T09:24:41.133Z,95.00
2019-01-04T09:25:41.102Z,95.00
2019-01-04T09:26:41.100Z,95.41
2019-01-04T09:27:41.093Z,95.20
2019-01-04T09:28:41.067Z,95.20
2019-01-04T09:29:41.052Z,95.00
2019-01-04T09:30:41.058Z,95.41
2019-01-04T09:31:41.031Z,95.72
2019-01-04T09:32:41.036Z,96.24
2019-01-04T09:33:41.008Z,95.93
2019-01-04T09:34:40.996Z,96.86
2019-01-04T09:35:40.987Z,96.66
2019-01-04T09:36:41.005Z,96.45
2019-01-04T09:37:40.964Z,96.76
2019-01-04T09:38:40.966Z,96.34
2019-01-04T09:39:40.944Z,97.07
2019-01-04T09:40:40.949Z,96.86
2019-01-04T09:41:40.926Z,96.91
2019-01-04T09:42:40.955Z,96.34
2019-01-04T09:43:40.898Z,96.34
2019-01-04T09:44:40.903Z,96.45
2019-01-04T09:45:40.878Z,96.34
2019-01-04T09:46:40.867Z,96.45
2019-01-04T09:47:40.856Z,96.76
2019-01-04T09:48:40.860Z,96.76
2019-01-04T09:49:40.844Z,96.76
2019-01-04T09:50:40.818Z,96.70
2019-01-04T09:51:41.881Z,96.70
2019-01-04T09:52:40.802Z,96.24
2019-01-04T09:53:40.788Z,96.86
2019-01-04T09:54:40.803Z,96.76
2019-01-04T09:55:40.764Z,96.91
2019-01-04T09:56:40.772Z,96.66
2019-01-04T09:57:40.743Z,96.86
2019-01-04T09:58:40.734Z,97.07
2019-01-04T09:59:40.720Z,96.97
2019-01-04T10:00:40.710Z,97.07
2019-01-04T10:01:40.726Z,96.97
2019-01-04T10:02:40.700Z,97.12
2019-01-04T10:03:40.679Z,96.66
2019-01-04T10:04:40.668Z,96.81
2019-01-04T10:05:40.653Z,97.28
2019-01-04T10:06:40.644Z,97.17
2019-01-04T10:07:40.669Z,97.12
2019-01-04T10:08:44.927Z,96.97
2019-01-04T10:09:40.612Z,97.07
2019-01-04T10:10:40.600Z,97.07
2019-01-04T10:11:40.590Z,97.07
2019-01-04T10:12:40.579Z,96.76
2019-01-04T10:13:40.620Z,96.97
2019-01-04T10:14:40.564Z,97.22
2019-01-04T10:15:40.544Z,97.17
2019-01-04T10:16:40.533Z,97.28
2019-01-04T10:17:40.568Z,97.07
2019-01-04T10:18:40.532Z,96.86
2019-01-04T10:19:40.499Z,97.07
2019-01-04T10:20:40.507Z,96.86
2019-01-04T10:21:40.480Z,96.66
2019-01-04T10:22:40.465Z,96.86
2019-01-04T10:23:40.455Z,96.76
2019-01-04T10:24:40.466Z,96.34
2019-01-04T10:25:40.433Z,96.34
2019-01-04T10:26:40.427Z,96.45
2019-01-04T10:27:40.434Z,96.86
2019-01-04T10:28:40.438Z,96.66
2019-01-04T10:29:40.413Z,96.66
2019-01-04T10:30:40.379Z,96.76
2019-01-04T10:31:40.370Z,96.55
2019-01-04T10:32:40.357Z,96.55
2019-01-04T10:33:40.390Z,96.66
2019-01-04T10:34:40.340Z,96.76
2019-01-04T10:35:40.333Z,96.76
2019-01-04T10:36:40.315Z,96.97
2019-01-04T10:37:40.300Z,96.97
2019-01-04T10:38:40.287Z,96.97
2019-01-04T10:39:40.293Z,96.97
2019-01-04T10:40:40.277Z,96.24
2019-01-04T10:41:40.280Z,96.45
2019-01-04T10:42:40.246Z,96.86
2019-01-04T10:43:40.235Z,96.66
2019-01-04T10:44:40.224Z,96.34
2019-01-04T10:45:40.212Z,96.24
2019-01-04T10:46:40.714Z,96.86
2019-01-04T10:47:40.191Z,96.66
2019-01-04T10:48:40.200Z,96.81
2019-01-04T10:49:40.168Z,96.45
2019-01-04T10:50:40.157Z,96.45
2019-01-04T10:51:40.145Z,97.07
2019-01-04T10:52:40.159Z,96.97
2019-01-04T10:53:40.152Z,97.22
2019-01-04T10:54:40.119Z,97.06
2019-01-04T10:55:40.111Z,97.02
2019-01-04T10:56:40.093Z,97.38
2019-01-04T10:57:40.080Z,97.07
2019-01-04T10:58:40.085Z,97.12
2019-01-04T10:59:40.099Z,97.02
2019-01-04T11:00:40.049Z,97.22
2019-01-04T11:01:40.032Z,97.22
2019-01-04T11:02:40.030Z,96.97
2019-01-04T11:03:40.012Z,97.22
2019-01-04T11:04:40.012Z,97.43
2019-01-04T11:05:40.011Z,97.49
2019-01-04T11:06:39.983Z,97.33
2019-01-04T11:07:39.969Z,97.43
2019-01-04T11:08:39.956Z,97.12
2019-01-04T11:09:39.966Z,97.12
2019-01-04T11:10:39.935Z,96.81
2019-01-04T11:11:39.945Z,96.81
2019-01-04T11:12:39.915Z,97.22
2019-01-04T11:13:39.904Z,96.66
2019-01-04T11:14:39.893Z,96.55
2019-01-04T11:15:39.904Z,96.81
2019-01-04T11:16:39.868Z,97.17
2019-01-04T11:17:39.882Z,97.43
2019-01-04T11:18:39.843Z,97.43
2019-01-04T11:19:39.834Z,97.02
2019-01-04T11:20:39.823Z,97.12
2019-01-04T11:21:39.826Z,97.02
2019-01-04T11:22:39.806Z,96.97
2019-01-04T11:23:39.818Z,97.33
2019-01-04T11:24:39.779Z,97.74
2019-01-04T11:25:39.771Z,97.53
2019-01-04T11:26:39.772Z,97.53
2019-01-04T11:27:39.748Z,97.22
2019-01-04T11:28:39.736Z,97.33
2019-01-04T11:29:39.757Z,97.53
2019-01-04T11:30:39.716Z,97.43
2019-01-04T11:31:39.712Z,97.22
2019-01-04T11:32:39.706Z,97.33
2019-01-04T11:33:39.679Z,97.12
2019-01-04T11:34:39.673Z,97.53
2019-01-04T11:35:39.671Z,96.81
2019-01-04T11:36:39.652Z,97.33
2019-01-04T11:37:39.661Z,97.12
2019-01-04T11:38:39.630Z,96.81
2019-01-04T11:39:39.614Z,97.12
2019-01-04T11:40:39.604Z,97.22
2019-01-04T11:41:39.598Z,97.12
2019-01-04T11:42:39.599Z,97.53
2019-01-04T11:43:39.583Z,97.49
2019-01-04T11:44:39.559Z,97.17
2019-01-04T11:45:39.557Z,97.07
2019-01-04T11:46:39.539Z,96.86
2019-01-04T11:47:39.525Z,96.70
2019-01-04T11:48:39.531Z,97.07
2019-01-04T11:49:39.543Z,96.55
2019-01-04T11:50:39.494Z,96.55
2019-01-04T11:51:39.537Z,96.76
2019-01-04T11:52:39.472Z,96.60
2019-01-04T11:53:39.460Z,96.55
2019-01-04T11:54:39.463Z,96.55
2019-01-04T11:55:39.437Z,96.60
2019-01-04T11:56:39.434Z,96.81
2019-01-04T11:57:40.744Z,96.34
2019-01-04T11:58:39.436Z,96.55
2019-01-04T11:59:39.641Z,96.34
2019-01-04T12:00:39.388Z,96.55
2019-01-04T12:01:39.387Z,96.76
2019-01-04T12:02:39.367Z,96.76
2019-01-04T12:03:39.349Z,96.70
2019-01-04T12:04:39.347Z,96.86
2019-01-04T12:05:39.344Z,97.02
2019-01-04T12:06:39.361Z,96.60
2019-01-04T12:07:39.306Z,97.07
2019-01-04T12:08:39.295Z,96.76
2019-01-04T12:09:39.292Z,96.66
2019-01-04T12:10:39.274Z,96.76
2019-01-04T12:11:39.281Z,96.66
2019-01-04T12:12:39.255Z,96.97
2019-01-04T12:13:39.245Z,96.97
2019-01-04T12:14:41.506Z,96.66
2019-01-04T12:15:39.217Z,97.17
2019-01-04T12:16:39.206Z,96.86
2019-01-04T12:17:39.259Z,96.97
2019-01-04T12:18:39.187Z,97.07
2019-01-04T12:19:39.175Z,96.81
2019-01-04T12:20:45.279Z,97.07
2019-01-04T12:21:40.150Z,96.66
2019-01-04T12:22:39.155Z,96.97
2019-01-04T12:23:39.160Z,96.97
2019-01-04T12:24:39.118Z,97.07
2019-01-04T12:25:39.105Z,96.66
2019-01-04T12:26:39.094Z,97.49
2019-01-04T12:27:39.084Z,96.97
2019-01-04T12:28:39.083Z,96.55
2019-01-04T12:29:39.079Z,96.66
2019-01-04T12:30:39.052Z,97.17
2019-01-04T12:31:39.045Z,97.17
2019-01-04T12:32:39.026Z,96.97
2019-01-04T12:33:39.047Z,97.12
2019-01-04T12:34:39.009Z,97.12
2019-01-04T12:35:39.052Z,97.12
2019-01-04T12:36:38.985Z,96.97
2019-01-04T12:37:38.975Z,97.33
2019-01-04T12:38:38.971Z,97.28
2019-01-04T12:39:38.949Z,96.76
2019-01-04T12:40:38.942Z,97.12
2019-01-04T12:41:38.946Z,97.02
2019-01-04T12:42:38.940Z,97.49
2019-01-04T12:43:38.912Z,97.17
2019-01-04T12:44:38.896Z,97.33
2019-01-04T12:45:38.902Z,97.49
2019-01-04T12:46:38.885Z,97.74
2019-01-04T12:47:38.882Z,97.17
2019-01-04T12:48:38.877Z,97.49
2019-01-04T12:49:38.848Z,97.07
2019-01-04T12:50:38.831Z,97.28
2019-01-04T12:51:38.818Z,96.86
2019-01-04T12:52:38.840Z,96.66